Time;durP1;ratioP1;P1;durP2;ratioP2;P2;SDS_P1;SDS_P2;PMS_P1;PMS_P2;Temp;Humidity;BMP_temperature;BMP_pressure;BME280_temperature;BME280_humidity;BME280_pressure;Samples;Min_cycle;Max_cycle;Signal;HPM_P1;HPM_P2
2021/11/27 00:00:29;;;;;;;10.68;3.88;;;6.30;77.90;;;;;;5035441;28;20479;-89
2021/11/27 00:02:56;;;;;;;6.23;2.67;;;6.30;78.20;;;;;;5037599;28;20029;-87
2021/11/27 00:05:23;;;;;;;3.83;2.67;;;6.30;78.30;;;;;;5027176;28;20040;-88
2021/11/27 00:07:50;;;;;;;4.53;2.55;;;6.20;78.40;;;;;;5017378;28;20510;-89
2021/11/27 00:10:19;;;;;;;6.47;1.98;;;6.20;77.80;;;;;;5031783;28;20021;-88
2021/11/27 00:12:47;;;;;;;7.82;3.22;;;6.20;78.00;;;;;;5036924;28;20117;-88
2021/11/27 00:15:13;;;;;;;9.10;2.83;;;6.20;78.80;;;;;;5024578;28;20033;-88
2021/11/27 00:17:40;;;;;;;4.05;1.60;;;6.20;78.80;;;;;;5017084;28;20054;-88
2021/11/27 00:20:13;;;;;;;4.43;1.80;;;6.00;78.60;;;;;;5018345;28;20044;-88
2021/11/27 00:22:39;;;;;;;3.25;1.83;;;5.90;78.60;;;;;;5017250;28;20022;-88
2021/11/27 00:25:06;;;;;;;3.97;2.47;;;5.80;79.00;;;;;;5017345;28;20037;-88
2021/11/27 00:27:32;;;;;;;8.65;2.90;;;5.90;79.80;;;;;;5024301;28;20136;-88
2021/11/27 00:29:59;;;;;;;7.18;3.17;;;5.90;79.40;;;;;;5036763;28;20053;-88
2021/11/27 00:32:25;;;;;;;9.70;3.03;;;5.90;79.40;;;;;;5053793;28;20017;-88
2021/11/27 00:34:50;;;;;;;6.22;2.78;;;5.80;79.50;;;;;;5055640;28;20037;-88
2021/11/27 00:37:17;;;;;;;3.50;1.80;;;5.90;79.90;;;;;;5036251;28;20029;-88
2021/11/27 00:39:42;;;;;;;3.90;2.38;;;5.90;79.60;;;;;;5015679;28;20041;-89
2021/11/27 00:42:08;;;;;;;8.30;3.30;;;5.80;80.00;;;;;;5016770;28;20076;-89
2021/11/27 00:44:34;;;;;;;7.72;2.83;;;5.80;80.40;;;;;;5021876;28;20069;-88
2021/11/27 00:47:00;;;;;;;8.05;1.90;;;6.00;80.00;;;;;;5036449;28;20025;-88
2021/11/27 00:49:25;;;;;;;5.72;2.42;;;5.90;79.30;;;;;;5039186;28;20136;-88
2021/11/27 00:51:51;;;;;;;3.42;1.80;;;6.00;79.90;;;;;;5032945;28;20045;-88
2021/11/27 00:54:21;;;;;;;6.47;2.47;;;6.00;79.40;;;;;;5018077;28;20026;-88
2021/11/27 00:56:48;;;;;;;6.10;2.13;;;6.00;79.50;;;;;;5016682;28;20030;-88
2021/11/27 00:59:14;;;;;;;5.78;2.08;;;6.00;79.10;;;;;;5016334;28;20105;-87
2021/11/27 01:01:40;;;;;;;6.03;2.33;;;6.00;78.50;;;;;;5038065;28;20029;-87
2021/11/27 01:04:06;;;;;;;3.17;1.58;;;5.80;78.00;;;;;;5056368;28;20098;-87
2021/11/27 01:06:33;;;;;;;13.30;2.00;;;5.90;79.10;;;;;;5050471;28;20026;-87
2021/11/27 01:09:02;;;;;;;5.55;2.40;;;5.90;78.90;;;;;;5015500;28;20030;-87
2021/11/27 01:11:33;;;;;;;5.15;1.55;;;5.80;78.60;;;;;;5019167;28;20028;-88
2021/11/27 01:14:11;;;;;;;4.75;1.80;;;5.80;78.70;;;;;;5016551;28;20030;-88
2021/11/27 01:16:59;;;;;;;5.57;1.85;;;5.80;79.50;;;;;;5017144;28;20045;-87
2021/11/27 01:19:26;;;;;;;6.55;1.88;;;5.80;79.10;;;;;;5016858;28;20038;-88
2021/11/27 01:22:02;;;;;;;4.63;1.23;;;5.70;78.20;;;;;;5014783;28;20113;-88
2021/11/27 01:24:28;;;;;;;7.40;1.73;;;5.70;79.00;;;;;;5017748;28;20129;-88
2021/11/27 01:26:54;;;;;;;2.78;1.48;;;5.60;79.80;;;;;;5016441;28;20026;-88
2021/11/27 01:29:21;;;;;;;2.05;1.40;;;5.50;79.60;;;;;;5018469;28;20052;-88
2021/11/27 01:31:47;;;;;;;6.45;1.85;;;5.50;79.80;;;;;;5016174;28;20423;-88
2021/11/27 01:34:13;;;;;;;6.57;2.00;;;5.40;80.00;;;;;;5018386;28;20034;-88
2021/11/27 01:36:38;;;;;;;3.70;1.73;;;5.40;80.20;;;;;;5016153;28;20497;-88
2021/11/27 01:39:06;;;;;;;8.73;2.33;;;5.30;79.60;;;;;;5016236;28;20104;-88
2021/11/27 01:41:33;;;;;;;9.23;2.95;;;5.30;79.70;;;;;;5020569;28;20837;-88
2021/11/27 01:43:59;;;;;;;6.18;2.45;;;5.20;79.60;;;;;;5025441;28;20153;-88
2021/11/27 01:46:24;;;;;;;9.88;2.22;;;5.20;79.70;;;;;;5055193;28;20056;-89
2021/11/27 01:48:50;;;;;;;1.88;1.58;;;5.20;79.60;;;;;;5055582;28;20041;-88
2021/11/27 01:51:19;;;;;;;1.63;1.42;;;5.20;79.60;;;;;;5056645;28;20111;-87
2021/11/27 01:53:48;;;;;;;1.95;1.30;;;5.20;79.60;;;;;;5051922;28;20087;-87
2021/11/27 01:56:35;;;;;;;3.55;1.85;;;5.10;79.50;;;;;;5015916;28;20038;-88
2021/11/27 01:59:01;;;;;;;2.10;1.75;;;5.10;79.80;;;;;;5016766;28;20037;-89
2021/11/27 02:01:30;;;;;;;2.70;1.52;;;5.00;79.70;;;;;;5014131;28;20492;-88
2021/11/27 02:03:57;;;;;;;4.10;1.38;;;5.00;79.90;;;;;;5018580;28;20045;-88
2021/11/27 02:06:25;;;;;;;7.25;1.83;;;5.00;79.70;;;;;;5049507;28;20053;-88
2021/11/27 02:08:53;;;;;;;5.43;2.00;;;4.90;79.70;;;;;;5018600;28;20030;-88
2021/11/27 02:11:23;;;;;;;2.58;1.40;;;4.90;79.70;;;;;;5016233;28;20423;-90
2021/11/27 02:13:54;;;;;;;3.65;1.63;;;4.90;79.40;;;;;;5017785;28;20096;-87
2021/11/27 02:16:21;;;;;;;5.45;2.33;;;4.90;79.80;;;;;;5016691;28;20026;-88
2021/11/27 02:18:46;;;;;;;7.55;2.35;;;5.00;79.50;;;;;;5018595;28;20049;-89
2021/11/27 02:21:16;;;;;;;5.82;3.22;;;5.00;79.30;;;;;;5038229;28;20024;-88
2021/11/27 02:23:42;;;;;;;7.80;2.70;;;5.10;79.60;;;;;;5035578;28;20025;-88
2021/11/27 02:26:09;;;;;;;2.72;1.20;;;5.10;79.70;;;;;;5036088;28;20045;-88
2021/11/27 02:28:38;;;;;;;2.63;1.88;;;5.20;79.40;;;;;;5029878;28;20030;-88
2021/11/27 02:31:07;;;;;;;1.95;1.67;;;5.20;79.20;;;;;;5017631;28;20022;-89
2021/11/27 02:33:32;;;;;;;3.17;1.70;;;5.30;79.20;;;;;;5015517;28;20088;-89
2021/11/27 02:35:58;;;;;;;4.03;2.00;;;5.30;78.80;;;;;;5017609;28;20022;-88
2021/11/27 02:38:24;;;;;;;5.25;1.63;;;5.20;79.30;;;;;;5033149;28;20092;-88
2021/11/27 02:40:50;;;;;;;7.47;1.75;;;5.20;79.30;;;;;;5039419;28;20033;-89
2021/11/27 02:43:16;;;;;;;2.95;1.40;;;5.10;79.60;;;;;;5041986;28;20030;-89
2021/11/27 02:45:42;;;;;;;3.58;1.40;;;5.10;79.40;;;;;;5043421;28;20033;-89
2021/11/27 02:48:08;;;;;;;7.25;1.52;;;5.10;79.60;;;;;;5021471;28;20034;-89
2021/11/27 02:50:34;;;;;;;5.53;1.65;;;5.00;79.90;;;;;;5034741;28;20112;-88
2021/11/27 02:53:00;;;;;;;1.92;1.65;;;5.00;80.30;;;;;;5019174;28;20488;-88
2021/11/27 02:55:26;;;;;;;3.08;1.33;;;5.00;80.40;;;;;;5031950;28;20041;-89
2021/11/27 02:57:51;;;;;;;5.03;1.80;;;4.90;80.30;;;;;;5038816;28;20033;-88
2021/11/27 03:00:20;;;;;;;5.93;2.65;;;5.00;80.40;;;;;;5041626;28;20052;-89
2021/11/27 03:02:48;;;;;;;4.15;1.50;;;5.00;80.60;;;;;;5019993;28;20033;-89
2021/11/27 03:05:17;;;;;;;3.50;1.45;;;4.80;80.40;;;;;;5021477;28;20538;-89
2021/11/27 03:07:43;;;;;;;9.87;1.60;;;4.80;80.80;;;;;;5018721;28;20058;-89
2021/11/27 03:10:12;;;;;;;2.75;1.38;;;4.80;80.60;;;;;;5018722;28;20272;-88
2021/11/27 03:12:39;;;;;;;9.57;1.70;;;4.80;80.70;;;;;;5053443;28;20061;-89
2021/11/27 03:15:12;;;;;;;2.10;1.55;;;4.80;80.70;;;;;;5018815;28;20037;-88
2021/11/27 03:17:38;;;;;;;4.72;1.63;;;4.70;80.70;;;;;;5036287;28;20070;-88
2021/11/27 03:20:07;;;;;;;4.28;1.27;;;4.70;80.90;;;;;;5017775;28;20077;-88
2021/11/27 03:22:32;;;;;;;7.63;2.88;;;4.70;80.90;;;;;;5021654;28;20021;-90
2021/11/27 03:24:58;;;;;;;2.47;1.35;;;4.70;80.60;;;;;;5017343;28;20022;-89
2021/11/27 03:27:45;;;;;;;2.15;1.20;;;4.70;81.00;;;;;;5019312;28;20423;-88
2021/11/27 03:30:16;;;;;;;4.93;1.65;;;4.80;81.10;;;;;;5037709;28;20032;-88
2021/11/27 03:32:43;;;;;;;12.13;1.77;;;4.80;81.10;;;;;;5038315;28;20391;-89
2021/11/27 03:35:09;;;;;;;5.10;1.70;;;4.80;80.80;;;;;;5034131;28;20402;-90
2021/11/27 03:37:35;;;;;;;3.53;1.88;;;4.80;80.50;;;;;;5016983;28;20041;-90
2021/11/27 03:40:05;;;;;;;2.15;1.58;;;4.90;80.90;;;;;;5021762;28;20026;-89
2021/11/27 03:42:32;;;;;;;2.05;1.13;;;4.90;80.30;;;;;;5018408;28;20491;-89
2021/11/27 03:44:58;;;;;;;7.68;1.77;;;4.80;80.60;;;;;;5020621;28;20042;-89
2021/11/27 03:47:24;;;;;;;4.38;1.58;;;4.80;80.90;;;;;;5017848;28;20205;-88
2021/11/27 03:49:52;;;;;;;2.83;1.45;;;4.80;81.10;;;;;;5016687;28;20018;-90
2021/11/27 03:52:18;;;;;;;7.95;2.00;;;4.80;81.00;;;;;;5020621;28;20596;-89
2021/11/27 03:54:44;;;;;;;4.50;1.67;;;4.90;81.00;;;;;;5018157;28;20073;-89
2021/11/27 03:57:10;;;;;;;2.80;1.73;;;4.90;80.60;;;;;;5021227;28;20390;-89
2021/11/27 03:59:36;;;;;;;6.28;1.73;;;4.90;81.20;;;;;;5018136;28;20053;-88
2021/11/27 04:02:07;;;;;;;4.97;1.58;;;5.00;81.40;;;;;;5020230;28;20491;-87
2021/11/27 04:04:38;;;;;;;3.25;1.45;;;5.00;80.70;;;;;;5027201;28;20041;-88
2021/11/27 04:07:04;;;;;;;4.15;2.22;;;5.00;81.20;;;;;;5037711;28;20530;-88
2021/11/27 04:09:32;;;;;;;3.55;1.52;;;5.00;81.20;;;;;;5025100;28;20033;-88
2021/11/27 04:11:58;;;;;;;6.10;2.22;;;4.90;80.90;;;;;;5017793;28;20113;-89
2021/11/27 04:14:24;;;;;;;13.65;1.90;;;4.80;80.80;;;;;;5019305;28;20030;-88
2021/11/27 04:16:50;;;;;;;6.57;1.63;;;4.70;81.00;;;;;;5017480;28;20508;-88
2021/11/27 04:19:16;;;;;;;7.75;1.83;;;4.60;81.50;;;;;;5020770;28;20076;-88
2021/11/27 04:21:41;;;;;;;4.90;1.55;;;4.70;81.90;;;;;;5017183;28;20037;-88
2021/11/27 04:24:07;;;;;;;6.05;1.55;;;4.70;81.50;;;;;;5016367;28;20037;-89
2021/11/27 04:26:33;;;;;;;4.40;1.63;;;4.70;81.60;;;;;;5038470;28;20037;-89
2021/11/27 04:28:59;;;;;;;3.55;1.67;;;4.70;81.40;;;;;;5037128;28;20097;-89
2021/11/27 04:31:25;;;;;;;10.35;1.83;;;4.70;81.50;;;;;;5039936;28;20394;-90
2021/11/27 04:33:51;;;;;;;3.20;1.52;;;4.80;81.50;;;;;;5028153;28;20104;-89
2021/11/27 04:36:17;;;;;;;2.85;1.50;;;4.80;81.20;;;;;;5020256;28;20033;-89
2021/11/27 04:38:43;;;;;;;4.25;2.03;;;4.80;81.70;;;;;;5016158;28;20022;-89
2021/11/27 04:41:10;;;;;;;2.15;1.33;;;5.00;81.70;;;;;;5017218;28;20142;-87
2021/11/27 04:43:35;;;;;;;2.95;1.73;;;5.00;81.60;;;;;;5019622;28;20030;-88
2021/11/27 04:46:02;;;;;;;3.13;1.63;;;5.00;81.70;;;;;;5039251;28;20025;-89
2021/11/27 04:48:28;;;;;;;3.72;1.83;;;5.10;81.80;;;;;;5039316;28;20025;-88
2021/11/27 04:50:53;;;;;;;2.15;1.30;;;5.10;82.10;;;;;;5036891;28;20026;-89
2021/11/27 04:53:22;;;;;;;3.53;1.60;;;5.10;82.20;;;;;;5037349;28;20024;-87
2021/11/27 04:55:48;;;;;;;2.80;1.73;;;5.20;82.10;;;;;;5032004;28;20122;-88
2021/11/27 04:58:14;;;;;;;5.85;1.60;;;5.20;82.00;;;;;;5015693;28;20101;-88
2021/11/27 05:00:43;;;;;;;3.63;1.55;;;5.20;82.00;;;;;;5019115;28;20108;-88
2021/11/27 05:03:09;;;;;;;8.25;2.17;;;5.30;81.90;;;;;;5016715;28;20026;-88
2021/11/27 05:05:35;;;;;;;7.93;1.65;;;5.30;81.90;;;;;;5019447;28;20573;-88
2021/11/27 05:08:01;;;;;;;9.38;1.30;;;5.20;81.70;;;;;;5016374;28;20105;-87
2021/11/27 05:10:27;;;;;;;7.25;1.80;;;5.20;82.00;;;;;;5018285;28;20030;-86
2021/11/27 05:12:53;;;;;;;3.55;1.45;;;5.20;81.90;;;;;;5035374;28;20013;-88
2021/11/27 05:15:20;;;;;;;7.20;1.80;;;5.20;82.20;;;;;;5035337;28;20026;-87
2021/11/27 05:17:45;;;;;;;1.20;1.05;;;5.20;82.20;;;;;;5030722;28;20056;-88
2021/11/27 05:20:11;;;;;;;4.13;1.35;;;5.20;82.10;;;;;;5015001;28;20124;-88
2021/11/27 05:22:38;;;;;;;2.33;1.30;;;5.20;82.50;;;;;;5017378;28;20392;-87
2021/11/27 05:25:06;;;;;;;3.03;1.50;;;5.30;82.60;;;;;;5016276;28;20551;-87
2021/11/27 05:27:35;;;;;;;9.80;1.35;;;5.30;82.80;;;;;;5018340;28;20049;-87
2021/11/27 05:30:00;;;;;;;4.35;1.63;;;5.30;82.80;;;;;;5015901;28;20030;-87
2021/11/27 05:32:39;;;;;;;1.23;1.08;;;5.40;82.70;;;;;;5016135;28;20037;-87
2021/11/27 05:35:07;;;;;;;4.32;1.70;;;5.40;82.70;;;;;;5016436;28;20026;-88
2021/11/27 05:37:33;;;;;;;5.18;1.25;;;5.40;82.70;;;;;;5015991;28;20101;-87
2021/11/27 05:40:02;;;;;;;4.43;1.27;;;5.40;82.50;;;;;;5033943;28;20029;-88
2021/11/27 05:42:28;;;;;;;2.90;1.05;;;5.30;83.10;;;;;;5016136;28;20127;-88
2021/11/27 05:44:55;;;;;;;6.55;1.15;;;5.30;83.00;;;;;;5027252;28;20073;-88
2021/11/27 05:47:21;;;;;;;7.47;1.58;;;5.30;83.00;;;;;;5034765;28;20112;-88
2021/11/27 05:50:03;;;;;;;1.92;1.10;;;5.30;83.50;;;;;;5015823;28;20475;-87
2021/11/27 05:52:28;;;;;;;1.67;1.05;;;5.30;83.70;;;;;;5015310;28;20041;-87
2021/11/27 05:54:54;;;;;;;6.80;1.52;;;5.30;83.80;;;;;;5033030;28;20428;-87
2021/11/27 05:57:20;;;;;;;4.53;1.10;;;5.30;83.90;;;;;;5038096;28;20396;-87
2021/11/27 05:59:46;;;;;;;1.23;1.10;;;5.40;83.70;;;;;;5028864;28;20029;-87
2021/11/27 06:02:12;;;;;;;8.85;1.40;;;5.40;83.50;;;;;;5017991;28;20034;-87
2021/11/27 06:04:38;;;;;;;5.35;1.42;;;5.50;83.90;;;;;;5015590;28;20412;-88
2021/11/27 06:07:09;;;;;;;6.18;1.25;;;5.50;83.70;;;;;;5014959;28;20034;-87
2021/11/27 06:09:34;;;;;;;;;;;5.40;84.50;;;;;;5031935;28;20033;-88
2021/11/27 06:12:00;;;;;;;1.85;1.42;;;5.40;85.20;;;;;;5015738;28;20114;-88
2021/11/27 06:14:25;;;;;;;8.65;1.40;;;5.50;84.80;;;;;;5018302;28;20079;-87
2021/11/27 06:16:51;;;;;;;4.18;1.50;;;5.50;84.40;;;;;;5015268;28;20022;-88
2021/11/27 06:19:17;;;;;;;5.85;1.33;;;5.70;84.20;;;;;;5017655;28;20607;-88
2021/11/27 06:21:44;;;;;;;3.10;1.20;;;5.60;83.50;;;;;;5014026;28;20575;-87
2021/11/27 06:24:09;;;;;;;4.78;1.45;;;5.70;83.80;;;;;;5015196;28;20029;-77
2021/11/27 06:26:35;;;;;;;5.25;1.23;;;5.70;83.60;;;;;;5014813;28;20096;-79
2021/11/27 06:29:01;;;;;;;2.70;1.45;;;5.80;83.50;;;;;;5015041;28;20035;-77
2021/11/27 06:31:27;;;;;;;4.65;1.50;;;5.80;83.30;;;;;;5013899;28;20079;-78
2021/11/27 06:33:53;;;;;;;4.00;1.95;;;5.90;83.30;;;;;;5014032;28;20460;-81
2021/11/27 06:36:18;;;;;;;8.82;1.67;;;6.00;83.20;;;;;;5015066;28;20029;-79
2021/11/27 06:38:44;;;;;;;10.35;2.70;;;5.90;83.30;;;;;;5014655;28;20515;-78
2021/11/27 06:41:12;;;;;;;8.77;1.73;;;5.90;83.40;;;;;;5033589;28;20093;-79
2021/11/27 06:43:38;;;;;;;4.05;1.35;;;6.00;83.50;;;;;;5033287;28;20036;-83
2021/11/27 06:46:04;;;;;;;8.07;1.88;;;6.00;83.50;;;;;;5048873;28;20104;-77
2021/11/27 06:48:30;;;;;;;3.75;1.30;;;5.90;84.30;;;;;;5037168;28;20119;-80
2021/11/27 06:50:56;;;;;;;3.88;2.05;;;5.90;84.70;;;;;;5034674;28;20025;-80
2021/11/27 06:53:22;;;;;;;3.83;1.52;;;5.80;84.30;;;;;;5033183;28;20023;-80
2021/11/27 06:55:47;;;;;;;5.97;1.42;;;5.90;84.00;;;;;;5033145;28;20112;-78
2021/11/27 06:58:15;;;;;;;7.53;1.80;;;5.90;83.20;;;;;;5015033;28;20033;-77
2021/11/27 07:00:41;;;;;;;9.15;1.60;;;6.00;83.30;;;;;;5015095;28;20037;-79
2021/11/27 07:03:07;;;;;;;5.93;1.35;;;6.00;83.20;;;;;;5014295;28;20037;-83
2021/11/27 07:05:32;;;;;;;6.35;1.70;;;6.00;83.10;;;;;;5021254;28;20037;-80
2021/11/27 07:07:58;;;;;;;5.30;1.52;;;6.10;83.20;;;;;;5034351;28;20432;-79
2021/11/27 07:10:24;;;;;;;4.97;1.30;;;6.20;83.20;;;;;;5034729;28;20029;-80
2021/11/27 07:12:49;;;;;;;8.88;3.00;;;6.20;83.20;;;;;;5029499;28;20839;-81
2021/11/27 07:15:22;;;;;;;7.10;1.80;;;6.10;83.30;;;;;;5016999;28;20065;-81
2021/11/27 07:17:48;;;;;;;7.82;1.63;;;6.10;83.20;;;;;;5020771;28;20133;-82
2021/11/27 07:20:14;;;;;;;9.32;1.90;;;6.10;83.10;;;;;;5016368;28;20057;-84
2021/11/27 07:22:39;;;;;;;4.57;1.92;;;6.10;82.90;;;;;;5024242;28;20024;-85
2021/11/27 07:25:06;;;;;;;7.35;1.70;;;6.20;83.00;;;;;;5030935;28;20056;-82
2021/11/27 07:27:31;;;;;;;5.70;1.60;;;6.10;83.00;;;;;;5026677;28;20049;-82
2021/11/27 07:29:57;;;;;;;3.13;1.60;;;6.20;83.00;;;;;;5031563;28;20045;-83
2021/11/27 07:32:25;;;;;;;8.77;1.50;;;6.20;82.90;;;;;;5022866;28;20026;-82
2021/11/27 07:34:51;;;;;;;7.22;1.50;;;6.20;82.70;;;;;;5022550;28;20034;-83
2021/11/27 07:37:16;;;;;;;5.72;1.83;;;6.30;82.90;;;;;;5018206;28;20026;-81
2021/11/27 07:39:42;;;;;;;7.00;1.40;;;6.20;83.10;;;;;;5033035;28;20101;-81
2021/11/27 07:42:08;;;;;;;2.63;1.30;;;6.00;84.10;;;;;;5029467;28;20025;-82
2021/11/27 07:44:34;;;;;;;5.15;1.60;;;5.90;83.70;;;;;;5030357;28;20500;-81
2021/11/27 07:46:59;;;;;;;7.32;1.52;;;5.90;83.30;;;;;;5017717;28;20029;-81
2021/11/27 07:49:26;;;;;;;8.00;1.30;;;5.80;83.30;;;;;;5032702;28;20037;-80
2021/11/27 07:51:53;;;;;;;4.38;1.48;;;5.80;84.00;;;;;;5028949;28;20024;-81
2021/11/27 07:54:19;;;;;;;4.03;1.40;;;6.00;83.80;;;;;;5013454;28;20036;-86
2021/11/27 07:56:46;;;;;;;2.55;1.33;;;6.10;83.30;;;;;;5019584;28;20018;-87
2021/11/27 07:59:11;;;;;;;3.67;1.75;;;6.20;83.20;;;;;;5030618;28;20086;-79
2021/11/27 08:01:37;;;;;;;5.25;1.45;;;6.10;83.10;;;;;;5016906;28;20026;-88
2021/11/27 08:04:03;;;;;;;4.60;1.80;;;6.20;83.10;;;;;;5016638;28;20088;-79
2021/11/27 08:11:21;;;;;;;3.28;1.55;;;6.10;83.30;;;;;;5072552;27;20915;-78
2021/11/27 08:13:48;;;;;;;11.65;1.90;;;6.00;83.90;;;;;;5071112;28;20140;-78
2021/11/27 08:16:17;;;;;;;3.42;1.83;;;6.00;83.70;;;;;;5069629;28;20037;-78
2021/11/27 08:18:43;;;;;;;3.40;1.30;;;6.10;84.00;;;;;;5071165;28;20052;-80
2021/11/27 08:21:09;;;;;;;12.38;2.30;;;6.20;83.60;;;;;;5063872;28;20086;-77
2021/11/27 08:23:35;;;;;;;13.25;2.03;;;6.10;84.00;;;;;;5070118;28;20020;-78
2021/11/27 08:26:01;;;;;;;1.50;1.15;;;6.10;84.00;;;;;;5064647;28;20391;-79
2021/11/27 08:28:27;;;;;;;5.10;1.27;;;6.10;83.60;;;;;;5064917;28;20025;-78
2021/11/27 08:30:52;;;;;;;4.95;1.42;;;6.10;83.10;;;;;;5071389;28;20028;-79
2021/11/27 08:33:18;;;;;;;12.27;1.77;;;6.10;83.30;;;;;;5065547;28;20462;-79
2021/11/27 08:35:44;;;;;;;3.65;1.63;;;6.20;82.80;;;;;;5068330;28;20072;-78
2021/11/27 08:38:10;;;;;;;12.05;2.10;;;6.20;82.50;;;;;;5068406;28;20538;-79
2021/11/27 08:40:35;;;;;;;5.68;1.60;;;6.20;82.80;;;;;;5065355;28;20126;-78
2021/11/27 08:43:01;;;;;;;4.13;1.45;;;6.20;82.70;;;;;;5071331;28;20028;-79
2021/11/27 08:45:28;;;;;;;3.03;1.13;;;6.20;82.90;;;;;;5065250;28;20685;-78
2021/11/27 08:47:55;;;;;;;1.95;1.35;;;6.20;82.80;;;;;;5064807;28;20041;-79
2021/11/27 08:50:21;;;;;;;7.20;1.73;;;6.30;82.90;;;;;;5070813;28;20035;-79
2021/11/27 08:52:47;;;;;;;6.68;1.20;;;6.30;82.00;;;;;;5065369;28;20112;-79
2021/11/27 08:55:14;;;;;;;8.27;1.42;;;6.30;81.60;;;;;;5064601;28;20024;-79
2021/11/27 08:57:40;;;;;;;11.38;1.75;;;6.60;81.60;;;;;;5056264;28;20021;-79
2021/11/27 09:00:08;;;;;;;3.38;1.38;;;6.60;81.20;;;;;;5070872;28;20026;-78
2021/11/27 09:02:35;;;;;;;9.07;1.52;;;6.70;81.20;;;;;;5064938;28;20082;-78
2021/11/27 09:05:00;;;;;;;5.55;1.80;;;6.80;80.60;;;;;;5064805;28;20029;-79
2021/11/27 09:07:26;;;;;;;6.38;1.50;;;6.80;81.00;;;;;;5070607;28;20043;-78
2021/11/27 09:09:52;;;;;;;3.78;1.33;;;6.80;80.60;;;;;;5064779;28;20045;-78
2021/11/27 09:12:20;;;;;;;2.97;1.42;;;6.50;81.10;;;;;;5069433;28;20052;-78
2021/11/27 09:14:47;;;;;;;5.38;2.63;;;6.40;81.90;;;;;;5063787;28;20542;-78
2021/11/27 09:17:13;;;;;;;6.88;1.40;;;6.20;84.00;;;;;;5057375;28;20037;-78
2021/11/27 09:19:39;;;;;;;5.10;1.42;;;6.10;84.10;;;;;;5058539;28;20453;-77
2021/11/27 09:22:05;;;;;;;3.63;1.67;;;6.10;83.70;;;;;;5060138;28;20193;-78
2021/11/27 09:24:31;;;;;;;7.18;1.80;;;6.20;83.00;;;;;;5051765;28;20460;-78
2021/11/27 09:26:57;;;;;;;9.13;1.92;;;6.30;82.20;;;;;;5046627;28;20029;-78
2021/11/27 09:29:23;;;;;;;6.68;2.33;;;6.20;81.80;;;;;;5056750;28;20040;-78
2021/11/27 09:31:49;;;;;;;2.95;1.73;;;6.20;81.90;;;;;;5054978;28;20021;-78
2021/11/27 09:34:15;;;;;;;3.33;1.10;;;6.40;81.60;;;;;;5055705;28;20119;-78
2021/11/27 09:36:43;;;;;;;7.03;1.55;;;6.60;80.30;;;;;;5055432;28;20032;-78
2021/11/27 09:39:12;;;;;;;3.58;1.70;;;6.50;80.70;;;;;;5053079;28;20245;-79
2021/11/27 09:41:41;;;;;;;4.53;1.02;;;6.40;80.60;;;;;;5053701;28;20372;-79
2021/11/27 09:44:07;;;;;;;3.75;1.35;;;6.30;82.20;;;;;;5054743;28;20433;-79
2021/11/27 09:46:36;;;;;;;8.35;1.20;;;6.20;84.40;;;;;;5054758;28;20486;-79
2021/11/27 09:49:11;;;;;;;10.57;2.10;;;6.10;84.40;;;;;;5047257;28;20025;-79
2021/11/27 09:51:38;;;;;;;3.72;2.00;;;6.10;84.00;;;;;;5052074;28;20032;-79
2021/11/27 09:54:06;;;;;;;9.13;1.77;;;6.10;84.50;;;;;;5054111;28;20048;-79
2021/11/27 09:56:32;;;;;;;6.88;1.73;;;6.10;83.80;;;;;;5055754;28;20628;-79
2021/11/27 09:58:59;;;;;;;11.98;2.58;;;6.20;83.80;;;;;;5053694;28;20017;-78
2021/11/27 10:01:29;;;;;;;14.60;1.80;;;6.30;83.60;;;;;;5054901;28;20095;-77
2021/11/27 10:04:08;;;;;;;6.32;1.70;;;6.50;83.40;;;;;;5055692;28;20028;-78
2021/11/27 10:06:36;;;;;;;8.38;2.05;;;6.70;82.80;;;;;;5053573;28;20029;-79
2021/11/27 10:09:07;;;;;;;6.38;1.80;;;6.70;82.30;;;;;;5049421;28;20036;-81
2021/11/27 10:11:33;;;;;;;5.10;2.28;;;6.70;82.20;;;;;;5043282;28;20024;-79
2021/11/27 10:13:59;;;;;;;5.25;1.88;;;6.70;82.60;;;;;;5052930;28;20029;-76
2021/11/27 10:16:25;;;;;;;12.75;2.25;;;6.80;81.80;;;;;;5052933;28;20040;-77
2021/11/27 10:19:09;;;;;;;7.93;1.52;;;6.70;82.00;;;;;;5055527;28;20065;-79
2021/11/27 10:21:36;;;;;;;4.03;1.45;;;6.70;82.00;;;;;;5038679;28;20123;-77
2021/11/27 10:24:18;;;;;;;2.72;1.13;;;6.70;81.90;;;;;;5052487;28;20020;-78
2021/11/27 10:26:45;;;;;;;6.70;1.70;;;6.50;81.60;;;;;;5050335;28;20475;-78
2021/11/27 10:29:19;;;;;;;5.55;2.10;;;6.50;82.30;;;;;;5053559;28;20738;-77
2021/11/27 10:31:49;;;;;;;4.47;1.75;;;6.30;82.80;;;;;;5051110;28;20053;-78
2021/11/27 10:34:21;;;;;;;7.03;1.95;;;6.30;82.60;;;;;;5051435;28;20017;-78
2021/11/27 10:36:46;;;;;;;2.42;1.75;;;6.30;82.90;;;;;;5069232;28;20108;-82
2021/11/27 10:39:12;;;;;;;4.88;1.50;;;6.40;82.50;;;;;;5053284;28;20147;-79
2021/11/27 10:42:02;;;;;;;8.90;2.22;;;6.50;83.00;;;;;;5052617;28;20025;-78
2021/11/27 10:44:30;;;;;;;8.07;2.08;;;6.70;82.10;;;;;;5053411;28;20032;-78
2021/11/27 10:47:11;;;;;;;10.48;2.08;;;6.80;82.50;;;;;;5051809;28;20056;-78
2021/11/27 10:49:37;;;;;;;7.60;1.95;;;6.80;81.80;;;;;;5052931;28;20108;-77
2021/11/27 10:52:11;;;;;;;8.05;2.05;;;7.00;82.40;;;;;;5052428;28;20523;-79
2021/11/27 10:54:56;;;;;;;4.47;1.30;;;7.20;81.90;;;;;;5051807;28;20039;-80
2021/11/27 10:57:39;;;;;;;3.65;1.80;;;7.30;80.20;;;;;;5051017;28;20021;-77
2021/11/27 11:00:26;;;;;;;2.60;1.08;;;7.20;80.50;;;;;;5048342;28;20025;-84
2021/11/27 11:02:51;;;;;;;4.25;1.00;;;7.00;80.90;;;;;;5049355;28;20029;-80
2021/11/27 11:05:19;;;;;;;0.70;0.70;;;6.70;82.90;;;;;;5051874;28;20539;-80
2021/11/27 11:07:56;;;;;;;1.45;1.00;;;6.40;82.30;;;;;;5052113;28;20021;-78
2021/11/27 11:10:25;;;;;;;6.93;1.48;;;6.40;81.30;;;;;;5048407;28;20064;-81
2021/11/27 11:12:59;;;;;;;2.90;1.00;;;6.40;80.90;;;;;;5052880;28;20689;-76
2021/11/27 11:15:46;;;;;;;2.25;1.20;;;6.60;81.20;;;;;;5052226;28;20037;-79
2021/11/27 11:18:12;;;;;;;4.63;1.35;;;7.00;80.70;;;;;;5053627;28;20025;-78
2021/11/27 11:20:52;;;;;;;4.20;1.08;;;7.50;79.70;;;;;;5054498;28;20142;-78
2021/11/27 11:23:35;;;;;;;2.75;1.20;;;7.60;79.60;;;;;;5047472;28;20021;-79
2021/11/27 11:26:17;;;;;;;5.57;1.60;;;7.60;78.90;;;;;;5053861;28;20029;-80
2021/11/27 11:28:56;;;;;;;7.00;1.65;;;7.50;79.60;;;;;;5053907;28;20097;-80
2021/11/27 11:31:28;;;;;;;7.88;1.42;;;7.40;79.90;;;;;;5053554;28;20032;-83
2021/11/27 11:33:59;;;;;;;6.22;1.50;;;7.30;80.70;;;;;;5046146;28;20029;-77
2021/11/27 11:36:26;;;;;;;3.42;1.38;;;7.20;81.90;;;;;;5053262;28;20032;-78
2021/11/27 11:38:57;;;;;;;2.67;1.33;;;7.10;82.60;;;;;;5049899;28;20019;-78
2021/11/27 11:41:24;;;;;;;6.43;1.25;;;7.00;83.00;;;;;;5051353;28;20135;-79
2021/11/27 11:43:51;;;;;;;2.35;1.10;;;6.80;84.00;;;;;;5050668;28;20032;-77
2021/11/27 11:46:17;;;;;;;1.83;1.40;;;6.20;87.40;;;;;;5047184;28;20029;-77
2021/11/27 11:48:50;;;;;;;3.58;1.55;;;6.10;88.80;;;;;;5054010;28;20021;-78
2021/11/27 11:51:41;;;;;;;4.68;1.30;;;6.00;88.80;;;;;;5048598;28;20059;-79
2021/11/27 11:54:09;;;;;;;6.18;1.55;;;5.80;89.10;;;;;;5045051;28;20698;-81
2021/11/27 11:56:38;;;;;;;8.07;1.85;;;5.90;90.30;;;;;;5045295;28;20032;-79
2021/11/27 11:59:21;;;;;;;15.43;4.35;;;6.10;90.00;;;;;;5053000;28;20045;-82
2021/11/27 12:02:13;;;;;;;4.35;1.35;;;6.00;89.30;;;;;;5049412;28;20099;-87
2021/11/27 12:04:57;;;;;;;1.50;0.85;;;6.10;89.30;;;;;;5045720;28;20025;-77
2021/11/27 12:07:42;;;;;;;6.30;1.48;;;6.20;89.10;;;;;;5067740;28;20029;-84
2021/11/27 12:10:19;;;;;;;4.40;1.73;;;6.20;88.10;;;;;;5050083;28;20081;-80
2021/11/27 12:13:04;;;;;;;3.72;1.63;;;6.10;87.60;;;;;;5052440;28;20076;-82
2021/11/27 12:15:40;;;;;;;5.22;1.30;;;6.00;86.90;;;;;;5043709;28;20048;-87
2021/11/27 12:18:17;;;;;;;1.23;1.08;;;5.90;86.30;;;;;;5052687;28;20523;-81
2021/11/27 12:20:47;;;;;;;1.27;0.90;;;6.00;85.60;;;;;;5045954;28;20024;-80
2021/11/27 12:23:42;;;;;;;3.35;1.90;;;6.00;85.60;;;;;;5050705;28;20029;-79
2021/11/27 12:26:08;;;;;;;1.73;1.35;;;5.80;85.00;;;;;;5051877;28;20032;-82
2021/11/27 12:28:42;;;;;;;2.65;1.27;;;6.00;85.10;;;;;;5052720;28;20021;-81
2021/11/27 12:31:16;;;;;;;4.70;1.48;;;5.90;84.50;;;;;;5046608;28;20037;-78
2021/11/27 12:33:51;;;;;;;2.22;1.33;;;6.10;84.80;;;;;;5054529;28;20021;-78
2021/11/27 12:36:29;;;;;;;4.75;1.30;;;6.20;83.40;;;;;;5049750;28;20068;-88
2021/11/27 12:39:06;;;;;;;7.68;2.08;;;6.30;82.90;;;;;;5043010;28;20053;-80
2021/11/27 12:41:38;;;;;;;4.68;1.20;;;6.30;82.80;;;;;;5049597;28;20054;-83
2021/11/27 12:44:27;;;;;;;2.97;1.20;;;6.20;82.10;;;;;;5049650;28;20028;-78
2021/11/27 12:46:54;;;;;;;3.87;2.17;;;6.10;82.50;;;;;;5052843;28;20410;-92
2021/11/27 12:49:32;;;;;;;1.33;1.08;;;6.00;83.10;;;;;;5049004;28;20222;-86
2021/11/27 12:52:16;;;;;;;1.45;1.17;;;6.10;83.30;;;;;;5051120;28;20035;-89
2021/11/27 12:54:44;;;;;;;3.50;1.48;;;6.00;83.10;;;;;;5052382;28;20025;-89
2021/11/27 12:57:23;;;;;;;4.38;2.10;;;6.20;83.40;;;;;;5052024;28;20041;-90
2021/11/27 13:00:10;;;;;;;3.83;1.88;;;6.20;84.10;;;;;;5071720;28;20028;-89
2021/11/27 13:02:56;;;;;;;1.02;0.93;;;6.30;83.50;;;;;;5065866;28;20114;-90
2021/11/27 13:05:25;;;;;;;3.10;1.58;;;6.30;82.70;;;;;;5055929;28;20033;-91
2021/11/27 13:07:51;;;;;;;5.55;1.67;;;6.30;82.50;;;;;;5056214;28;20114;-90
2021/11/27 13:10:16;;;;;;;3.58;1.95;;;6.30;82.70;;;;;;5058225;28;20498;-91